Time;durP1;ratioP1;P1;durP2;ratioP2;P2;SDS_P1;SDS_P2;PMS_P1;PMS_P2;Temp;Humidity;BMP_temperature;BMP_pressure;BME280_temperature;BME280_humidity;BME280_pressure;Samples;Min_cycle;Max_cycle;Signal;HPM_P1;HPM_P2
2024/03/22 00:01:32;;;;;;;21.92;13.02;;;24.20;42.30;;;;;;6149230;28;83685;-57
2024/03/22 00:04:33;;;;;;;21.17;13.23;;;24.20;41.70;;;;;;6153557;28;83186;-58
2024/03/22 00:07:33;;;;;;;21.83;13.88;;;24.20;41.60;;;;;;6159028;28;84073;-57
2024/03/22 00:10:34;;;;;;;22.77;13.32;;;24.10;41.70;;;;;;6157910;28;85594;-58
2024/03/22 00:13:34;;;;;;;19.25;13.45;;;24.20;41.70;;;;;;6161894;28;84059;-58
2024/03/22 00:16:35;;;;;;;23.15;15.07;;;24.10;41.70;;;;;;6154038;28;83083;-57
2024/03/22 00:19:35;;;;;;;18.50;12.82;;;24.20;42.00;;;;;;6149149;28;83373;-58
2024/03/22 00:22:36;;;;;;;23.33;13.30;;;24.20;42.00;;;;;;6148410;28;83316;-58
2024/03/22 00:25:36;;;;;;;21.52;13.63;;;24.20;42.00;;;;;;6148086;28;83792;-59
2024/03/22 00:28:37;;;;;;;21.33;13.55;;;24.20;42.00;;;;;;6148890;28;83312;-58
2024/03/22 00:31:37;;;;;;;23.08;14.35;;;24.20;42.00;;;;;;6160663;28;84072;-58
2024/03/22 00:34:38;;;;;;;24.42;13.63;;;24.20;42.00;;;;;;6149461;28;83778;-56
2024/03/22 00:37:38;;;;;;;23.83;14.32;;;24.20;42.10;;;;;;6148011;28;84865;-57
2024/03/22 00:40:39;;;;;;;23.33;13.60;;;24.20;42.00;;;;;;6148983;28;83408;-56
2024/03/22 00:43:39;;;;;;;22.92;13.18;;;24.20;42.00;;;;;;6150027;28;84746;-56
2024/03/22 00:46:40;;;;;;;24.38;13.25;;;24.20;42.00;;;;;;6152277;28;85272;-57
2024/03/22 00:49:40;;;;;;;23.23;13.95;;;24.20;42.70;;;;;;6153147;28;83503;-58
2024/03/22 00:52:41;;;;;;;22.95;14.13;;;24.20;42.10;;;;;;6148842;28;83599;-56
2024/03/22 00:55:42;;;;;;;24.35;14.15;;;24.20;42.00;;;;;;6148355;28;83344;-56
2024/03/22 00:58:42;;;;;;;24.02;14.90;;;24.20;42.00;;;;;;6146870;28;83462;-55
2024/03/22 01:01:43;;;;;;;23.88;15.38;;;24.20;42.00;;;;;;6147488;28;84805;-58
2024/03/22 01:04:44;;;;;;;26.55;15.15;;;24.20;42.00;;;;;;6154400;28;82845;-56
2024/03/22 01:07:44;;;;;;;28.63;15.90;;;24.20;42.00;;;;;;6153743;28;86126;-57
2024/03/22 01:10:45;;;;;;;25.83;15.82;;;24.20;42.00;;;;;;6146944;28;84843;-58
2024/03/22 01:13:45;;;;;;;31.05;17.60;;;24.20;42.10;;;;;;6161255;28;83726;-58
2024/03/22 01:16:46;;;;;;;28.35;15.90;;;24.20;42.10;;;;;;6147159;28;84316;-58
2024/03/22 01:19:46;;;;;;;28.25;17.35;;;24.20;42.10;;;;;;6147596;28;83263;-57
2024/03/22 01:22:47;;;;;;;30.02;18.23;;;24.20;42.00;;;;;;6147709;28;83292;-56
2024/03/22 01:25:47;;;;;;;34.53;18.38;;;24.20;42.00;;;;;;6148466;28;83503;-58
2024/03/22 01:28:48;;;;;;;29.60;18.00;;;24.20;42.10;;;;;;6147270;28;83005;-58
2024/03/22 01:31:48;;;;;;;29.55;17.75;;;24.10;42.00;;;;;;6146555;28;86578;-58
2024/03/22 01:34:49;;;;;;;32.92;19.08;;;24.10;42.00;;;;;;6160285;28;82974;-58
2024/03/22 01:37:49;;;;;;;30.73;17.48;;;24.10;42.10;;;;;;6163578;28;84288;-47
2024/03/22 01:40:50;;;;;;;32.10;17.23;;;24.20;42.50;;;;;;6160818;28;82827;-55
2024/03/22 01:43:50;;;;;;;29.67;18.27;;;24.10;42.40;;;;;;6157384;28;85743;-55
2024/03/22 01:46:51;;;;;;;31.60;18.92;;;24.10;42.30;;;;;;6147034;28;83729;-54
2024/03/22 01:49:51;;;;;;;32.85;18.85;;;24.10;42.20;;;;;;6163953;28;83730;-54
2024/03/22 01:52:52;;;;;;;29.60;17.70;;;24.10;42.30;;;;;;6154609;28;83914;-54
2024/03/22 01:55:52;;;;;;;28.80;18.48;;;24.10;42.30;;;;;;6158353;28;90052;-55
2024/03/22 01:58:53;;;;;;;30.25;18.55;;;24.10;42.40;;;;;;6147613;28;83007;-53
2024/03/22 02:01:54;;;;;;;32.25;18.50;;;24.10;42.40;;;;;;6143770;28;85560;-59
2024/03/22 02:04:55;;;;;;;32.85;19.05;;;24.10;42.40;;;;;;6153760;28;83424;-58
2024/03/22 02:07:55;;;;;;;32.58;18.70;;;24.10;42.40;;;;;;6157868;28;83020;-58
2024/03/22 02:10:56;;;;;;;29.88;17.83;;;24.10;42.50;;;;;;6148960;28;84479;-58
2024/03/22 02:13:56;;;;;;;30.42;17.08;;;24.10;42.50;;;;;;6145848;28;84139;-58
2024/03/22 02:16:57;;;;;;;30.30;17.15;;;24.10;43.20;;;;;;6150678;28;83848;-58
2024/03/22 02:19:57;;;;;;;27.88;17.30;;;24.10;42.60;;;;;;6151080;28;83107;-54
2024/03/22 02:22:58;;;;;;;31.55;17.98;;;24.10;42.60;;;;;;6150225;28;83291;-50
2024/03/22 02:25:58;;;;;;;29.65;17.38;;;24.10;43.20;;;;;;6151857;28;83315;-51
2024/03/22 02:28:59;;;;;;;29.80;17.58;;;24.10;42.60;;;;;;6151130;28;83407;-54
2024/03/22 02:31:59;;;;;;;27.00;16.63;;;24.10;42.70;;;;;;6152785;28;83467;-56
2024/03/22 02:35:00;;;;;;;29.35;17.65;;;24.10;42.70;;;;;;6150821;28;83577;-53
2024/03/22 02:38:00;;;;;;;29.38;15.95;;;24.10;42.70;;;;;;6150839;28;89310;-56
2024/03/22 02:41:01;;;;;;;31.10;17.80;;;24.10;42.70;;;;;;6163393;28;83527;-55
2024/03/22 02:44:01;;;;;;;24.70;16.52;;;24.10;42.70;;;;;;6158588;28;83463;-57
2024/03/22 02:47:02;;;;;;;31.08;18.38;;;24.10;42.70;;;;;;6150032;28;83373;-55
2024/03/22 02:50:02;;;;;;;28.70;16.52;;;24.10;42.70;;;;;;6150278;28;83973;-54
2024/03/22 02:53:03;;;;;;;31.25;17.30;;;24.10;42.70;;;;;;6150357;28;82963;-54
2024/03/22 02:56:03;;;;;;;29.42;17.08;;;24.10;42.80;;;;;;6148403;28;85499;-57
2024/03/22 02:59:04;;;;;;;28.90;16.58;;;24.10;42.70;;;;;;6150125;28;83004;-59
2024/03/22 03:02:04;;;;;;;27.40;15.63;;;24.10;42.70;;;;;;6150063;28;84055;-58
2024/03/22 03:05:05;;;;;;;28.60;16.70;;;24.10;42.70;;;;;;6160123;28;84240;-59
2024/03/22 03:08:06;;;;;;;26.63;15.70;;;24.10;42.70;;;;;;6153990;28;83372;-59
2024/03/22 03:11:06;;;;;;;28.50;17.23;;;24.10;42.80;;;;;;6149554;28;83166;-59
2024/03/22 03:14:07;;;;;;;28.63;16.88;;;24.10;42.80;;;;;;6150113;28;82872;-59
2024/03/22 03:17:07;;;;;;;26.95;16.25;;;24.10;42.90;;;;;;6149289;28;84219;-55
2024/03/22 03:20:10;;;;;;;30.38;17.30;;;24.10;42.90;;;;;;6149375;28;83320;-54
2024/03/22 03:23:10;;;;;;;24.25;15.40;;;24.10;42.90;;;;;;6150335;28;83657;-54
2024/03/22 03:26:11;;;;;;;25.00;16.10;;;24.10;43.00;;;;;;6149177;28;83925;-54
2024/03/22 03:29:11;;;;;;;27.17;16.42;;;24.10;43.00;;;;;;6149951;28;83249;-54
2024/03/22 03:32:12;;;;;;;24.88;14.82;;;24.10;43.00;;;;;;6163545;28;84263;-52
2024/03/22 03:35:12;;;;;;;30.50;17.25;;;24.10;43.10;;;;;;6155608;28;83358;-52
2024/03/22 03:38:13;;;;;;;26.58;15.18;;;24.10;43.10;;;;;;6148953;28;83216;-53
2024/03/22 03:41:13;;;;;;;26.27;15.90;;;24.10;43.00;;;;;;6162157;28;83145;-52
2024/03/22 03:44:14;;;;;;;29.30;15.68;;;24.10;43.10;;;;;;6149299;28;85669;-54
2024/03/22 03:47:15;;;;;;;22.13;13.52;;;24.10;43.10;;;;;;6147908;28;83127;-56
2024/03/22 03:50:15;;;;;;;24.00;13.15;;;24.10;43.30;;;;;;6148722;28;83124;-53
2024/03/22 03:53:16;;;;;;;26.20;15.13;;;24.10;43.40;;;;;;6159045;28;82999;-47
2024/03/22 03:56:16;;;;;;;21.48;13.05;;;24.10;43.30;;;;;;6153015;28;84964;-54
2024/03/22 03:59:17;;;;;;;24.23;13.68;;;24.10;43.20;;;;;;6149200;28;83030;-49
2024/03/22 04:02:18;;;;;;;22.70;14.27;;;24.10;43.20;;;;;;6161059;28;83465;-50
2024/03/22 04:05:19;;;;;;;24.02;14.88;;;24.10;43.30;;;;;;6157222;28;83368;-51
2024/03/22 04:08:19;;;;;;;25.00;14.63;;;24.10;43.40;;;;;;6159694;28;85495;-49
2024/03/22 04:11:20;;;;;;;23.58;14.00;;;24.10;43.50;;;;;;6170961;28;84495;-49
2024/03/22 04:14:20;;;;;;;22.55;14.10;;;24.10;43.50;;;;;;6151354;28;83273;-48
2024/03/22 04:17:21;;;;;;;20.40;13.02;;;24.10;43.40;;;;;;6150337;28;86490;-52
2024/03/22 04:20:22;;;;;;;25.15;13.98;;;24.10;43.90;;;;;;6148758;28;83608;-58
2024/03/22 04:23:22;;;;;;;22.13;13.48;;;24.20;44.40;;;;;;6150658;28;83203;-59
2024/03/22 04:26:23;;;;;;;26.08;13.73;;;24.20;43.80;;;;;;6156167;28;83043;-58
2024/03/22 04:29:23;;;;;;;22.83;13.27;;;24.20;43.60;;;;;;6150643;28;83621;-61
2024/03/22 04:32:24;;;;;;;23.90;13.73;;;24.20;43.50;;;;;;6153605;28;84003;-57
2024/03/22 04:35:24;;;;;;;22.75;13.10;;;24.20;43.60;;;;;;6148721;28;83112;-59
2024/03/22 04:38:25;;;;;;;23.42;13.43;;;24.20;43.50;;;;;;6147826;28;84164;-61
2024/03/22 04:41:25;;;;;;;19.90;11.73;;;24.20;43.40;;;;;;6147908;28;83614;-59
2024/03/22 04:44:26;;;;;;;23.35;13.18;;;24.20;43.50;;;;;;6149028;28;83301;-58
2024/03/22 04:47:26;;;;;;;21.52;11.80;;;24.30;43.40;;;;;;6147282;28;83182;-47
2024/03/22 04:50:27;;;;;;;18.88;11.70;;;24.30;43.50;;;;;;6147713;28;83061;-48
2024/03/22 04:53:27;;;;;;;18.92;10.57;;;24.30;43.50;;;;;;6146466;28;83519;-48
2024/03/22 04:56:28;;;;;;;17.05;10.55;;;24.40;43.70;;;;;;6147637;28;82885;-56
2024/03/22 04:59:28;;;;;;;17.13;10.65;;;24.30;43.60;;;;;;6170433;28;83078;-53
2024/03/22 05:02:29;;;;;;;16.02;9.85;;;24.40;43.60;;;;;;6151677;28;83115;-50
2024/03/22 05:05:29;;;;;;;15.60;9.00;;;24.40;43.70;;;;;;6175130;28;81902;-56
2024/03/22 05:08:30;;;;;;;19.15;9.35;;;24.40;43.70;;;;;;6151395;28;81718;-57
2024/03/22 05:11:30;;;;;;;18.23;10.35;;;24.40;43.80;;;;;;6150498;28;80506;-52
2024/03/22 05:14:31;;;;;;;16.27;9.75;;;24.40;43.80;;;;;;6149376;28;96504;-48
2024/03/22 05:17:32;;;;;;;15.45;9.25;;;24.40;43.90;;;;;;6153762;28;82166;-55
2024/03/22 05:20:32;;;;;;;16.90;8.15;;;24.50;43.90;;;;;;6154417;28;80776;-51
2024/03/22 05:23:33;;;;;;;17.50;9.38;;;24.50;44.00;;;;;;6162227;28;80810;-54
2024/03/22 05:26:36;;;;;;;16.70;8.68;;;24.50;44.40;;;;;;6161280;28;81434;-51
2024/03/22 05:29:36;;;;;;;17.90;8.85;;;24.50;44.30;;;;;;6151451;28;84991;-49
2024/03/22 05:32:37;;;;;;;17.38;9.00;;;24.50;44.60;;;;;;6157251;28;80626;-59
2024/03/22 05:35:37;;;;;;;17.20;8.77;;;24.50;44.80;;;;;;6161967;28;83534;-60
2024/03/22 05:38:38;;;;;;;16.63;9.63;;;24.50;44.70;;;;;;6160595;28;80455;-55
2024/03/22 05:41:38;;;;;;;14.00;8.35;;;24.40;44.70;;;;;;6161246;28;80967;-58
2024/03/22 05:44:39;;;;;;;17.30;9.38;;;24.40;44.40;;;;;;6149651;28;80314;-58
2024/03/22 05:47:39;;;;;;;14.32;8.77;;;24.40;44.80;;;;;;6147894;28;80692;-58
2024/03/22 05:50:40;;;;;;;12.65;8.50;;;24.40;45.20;;;;;;6151042;28;80851;-58
2024/03/22 05:53:42;;;;;;;17.15;8.55;;;24.40;45.30;;;;;;6152813;28;81159;-59
2024/03/22 05:56:42;;;;;;;19.65;8.23;;;24.40;45.30;;;;;;6151011;28;80422;-59
2024/03/22 05:59:42;;;;;;;19.23;8.63;;;24.40;45.20;;;;;;6151301;28;80959;-59
2024/03/22 06:02:43;;;;;;;17.98;9.00;;;24.50;45.10;;;;;;6165571;28;80489;-62
2024/03/22 06:05:43;;;;;;;16.88;8.43;;;24.40;45.00;;;;;;6150424;28;80755;-64
2024/03/22 06:08:45;;;;;;;13.10;7.63;;;24.50;45.10;;;;;;6150413;28;81725;-62
2024/03/22 06:11:45;;;;;;;19.67;8.25;;;24.40;45.00;;;;;;6151183;28;80551;-63
2024/03/22 06:14:48;;;;;;;16.88;7.93;;;24.40;45.00;;;;;;6154187;28;82544;-63
2024/03/22 06:17:50;;;;;;;12.65;7.70;;;24.40;45.00;;;;;;6155338;28;80578;-64
2024/03/22 06:20:50;;;;;;;16.52;8.80;;;24.40;44.90;;;;;;6153933;28;81717;-58
2024/03/22 06:23:51;;;;;;;15.00;8.23;;;24.40;44.90;;;;;;6157859;28;80337;-57
2024/03/22 06:26:52;;;;;;;12.05;7.65;;;24.40;44.80;;;;;;6160607;28;83456;-57
2024/03/22 06:29:52;;;;;;;11.07;7.05;;;24.30;44.90;;;;;;6173330;28;80504;-58
2024/03/22 06:32:53;;;;;;;14.68;8.20;;;24.40;45.10;;;;;;6165907;28;80653;-57
2024/03/22 06:35:53;;;;;;;12.68;7.40;;;24.30;44.80;;;;;;6163692;28;81808;-57
2024/03/22 06:38:54;;;;;;;15.23;8.10;;;24.30;44.80;;;;;;6144972;28;80903;-59
2024/03/22 06:41:54;;;;;;;13.02;7.32;;;24.30;44.90;;;;;;6160387;28;81340;-62
2024/03/22 06:44:55;;;;;;;10.82;7.00;;;24.30;44.90;;;;;;6165085;28;81220;-66
2024/03/22 06:47:55;;;;;;;13.18;7.05;;;24.30;45.00;;;;;;6161280;28;80452;-63
2024/03/22 06:50:56;;;;;;;11.15;6.47;;;24.30;45.20;;;;;;6152635;28;81384;-65
2024/03/22 06:53:56;;;;;;;12.77;6.72;;;24.30;45.30;;;;;;6138361;28;83954;-65
2024/03/22 06:56:57;;;;;;;12.30;7.53;;;24.30;45.20;;;;;;6152578;28;81419;-64
2024/03/22 06:59:57;;;;;;;18.38;7.05;;;24.30;45.10;;;;;;6157639;28;81301;-65
2024/03/22 07:03:00;;;;;;;11.63;7.82;;;24.30;45.00;;;;;;6157455;28;81163;-63
2024/03/22 07:06:00;;;;;;;11.35;6.90;;;24.30;45.10;;;;;;6154509;28;81682;-63
2024/03/22 07:09:01;;;;;;;10.73;7.07;;;24.20;44.90;;;;;;6158493;28;81563;-63
2024/03/22 07:12:01;;;;;;;8.43;6.20;;;24.30;45.60;;;;;;6157827;28;83170;-63
2024/03/22 07:15:02;;;;;;;11.63;6.57;;;24.20;45.00;;;;;;6156477;28;81836;-63
2024/03/22 07:18:03;;;;;;;11.65;6.82;;;24.20;44.90;;;;;;6158310;28;82267;-63
2024/03/22 07:21:03;;;;;;;9.35;6.32;;;24.20;45.00;;;;;;6140805;28;81491;-63
2024/03/22 07:24:04;;;;;;;11.30;6.97;;;24.20;45.00;;;;;;6153364;28;81501;-65
2024/03/22 07:27:04;;;;;;;12.48;6.43;;;24.20;44.90;;;;;;6142673;28;81364;-63
2024/03/22 07:30:05;;;;;;;10.18;5.60;;;24.20;44.90;;;;;;6157724;28;81413;-61
2024/03/22 07:33:06;;;;;;;9.93;6.47;;;24.20;44.80;;;;;;6156359;28;81576;-64
2024/03/22 07:36:06;;;;;;;10.85;6.70;;;24.20;44.80;;;;;;6153743;28;82472;-65
2024/03/22 07:39:07;;;;;;;10.55;5.78;;;24.20;44.70;;;;;;6130960;28;82141;-65
2024/03/22 07:42:08;;;;;;;11.48;6.40;;;24.20;44.80;;;;;;6153267;28;81104;-64
2024/03/22 07:45:08;;;;;;;8.70;6.07;;;24.20;44.80;;;;;;6140628;28;81403;-64
2024/03/22 07:48:10;;;;;;;8.05;5.13;;;24.20;44.80;;;;;;6156834;28;81711;-63
2024/03/22 07:51:10;;;;;;;8.50;5.88;;;24.20;44.70;;;;;;6157061;28;81276;-56
2024/03/22 07:54:11;;;;;;;10.85;5.88;;;24.10;44.60;;;;;;6153863;28;81247;-54
2024/03/22 07:57:11;;;;;;;10.68;5.80;;;24.20;44.70;;;;;;6156960;28;81714;-54
2024/03/22 08:00:12;;;;;;;11.65;5.97;;;24.10;44.70;;;;;;6157575;28;81844;-55
2024/03/22 08:03:13;;;;;;;9.30;5.32;;;24.10;44.60;;;;;;6154778;28;82168;-56
2024/03/22 08:06:13;;;;;;;8.88;5.43;;;24.20;44.70;;;;;;6154515;28;81206;-56
2024/03/22 08:09:14;;;;;;;9.63;4.95;;;24.20;44.80;;;;;;6155703;28;81524;-56
2024/03/22 08:12:14;;;;;;;8.32;5.30;;;24.10;44.60;;;;;;6155767;28;81439;-56
2024/03/22 08:15:15;;;;;;;8.13;5.70;;;24.10;44.70;;;;;;6150487;28;81882;-56
2024/03/22 08:18:15;;;;;;;9.20;5.40;;;24.20;44.60;;;;;;6137954;28;81281;-58
2024/03/22 08:21:16;;;;;;;8.38;4.80;;;24.20;44.60;;;;;;6157486;28;81527;-56
2024/03/22 08:24:16;;;;;;;7.40;5.22;;;24.20;44.50;;;;;;6152471;28;87956;-56
2024/03/22 08:27:17;;;;;;;9.85;4.90;;;24.20;44.60;;;;;;6155800;28;82053;-65
2024/03/22 08:30:17;;;;;;;6.93;4.82;;;24.20;44.50;;;;;;6157193;28;82094;-65
2024/03/22 08:33:18;;;;;;;6.60;4.63;;;24.10;44.50;;;;;;6156828;28;81310;-64
2024/03/22 08:36:18;;;;;;;7.60;4.82;;;24.20;44.60;;;;;;6154054;28;82016;-64
2024/03/22 08:39:19;;;;;;;8.00;4.80;;;24.20;44.50;;;;;;6152546;28;81385;-65
2024/03/22 08:42:19;;;;;;;8.75;4.57;;;24.10;44.50;;;;;;6154399;28;81120;-65
2024/03/22 08:45:20;;;;;;;5.75;4.45;;;24.20;44.60;;;;;;6140138;28;81636;-59
2024/03/22 08:48:21;;;;;;;8.48;4.47;;;24.20;44.60;;;;;;6164330;28;81480;-53
2024/03/22 08:51:21;;;;;;;5.88;4.20;;;24.20;44.70;;;;;;6150662;28;80903;-51
2024/03/22 08:54:22;;;;;;;6.35;4.55;;;24.20;44.70;;;;;;6156793;28;81351;-51
2024/03/22 08:57:23;;;;;;;5.90;4.22;;;24.20;44.70;;;;;;6165711;28;81512;-58
2024/03/22 09:00:23;;;;;;;5.68;4.50;;;24.20;44.70;;;;;;6157504;28;81200;-53
2024/03/22 09:03:24;;;;;;;6.20;4.22;;;24.20;44.80;;;;;;6162198;28;80839;-54
2024/03/22 09:06:24;;;;;;;8.07;4.95;;;24.20;44.80;;;;;;6151187;28;80901;-55
2024/03/22 09:09:25;;;;;;;9.32;4.78;;;24.20;44.90;;;;;;6164533;28;80891;-54
2024/03/22 09:12:27;;;;;;;7.20;4.57;;;24.10;44.80;;;;;;6154745;28;80853;-54
2024/03/22 09:15:28;;;;;;;8.63;4.68;;;24.20;44.80;;;;;;6160015;28;80280;-55
2024/03/22 09:18:28;;;;;;;9.00;4.85;;;24.10;44.70;;;;;;6151752;28;80985;-55
2024/03/22 09:21:31;;;;;;;6.95;4.22;;;24.10;44.70;;;;;;6152090;28;80776;-56
2024/03/22 09:24:31;;;;;;;6.75;4.88;;;24.10;44.60;;;;;;6154011;28;86441;-57
2024/03/22 09:27:32;;;;;;;5.78;4.22;;;24.10;44.50;;;;;;6155811;28;81644;-57
2024/03/22 09:30:33;;;;;;;5.55;4.35;;;24.20;44.60;;;;;;6158925;28;80622;-56
2024/03/22 09:33:33;;;;;;;6.90;3.88;;;24.10;44.50;;;;;;6162528;28;80802;-57
2024/03/22 09:36:35;;;;;;;6.70;4.07;;;24.10;44.50;;;;;;6156091;28;80466;-55
2024/03/22 09:39:36;;;;;;;5.55;3.97;;;24.10;44.50;;;;;;6161718;28;80483;-56
2024/03/22 09:42:36;;;;;;;6.18;4.00;;;24.20;44.50;;;;;;6154434;28;80988;-58
2024/03/22 09:45:37;;;;;;;7.18;3.85;;;24.20;44.50;;;;;;6155895;28;80579;-59
2024/03/22 09:48:37;;;;;;;4.78;3.45;;;24.20;44.50;;;;;;6155364;28;80336;-59
2024/03/22 09:51:38;;;;;;;7.15;3.63;;;24.20;44.50;;;;;;6168630;28;81040;-58
2024/03/22 09:54:38;;;;;;;5.20;4.10;;;24.20;44.60;;;;;;6155981;28;81136;-58
2024/03/22 09:57:39;;;;;;;6.53;3.67;;;24.20;44.60;;;;;;6155499;28;80411;-59
2024/03/22 10:00:40;;;;;;;4.57;3.65;;;24.20;44.60;;;;;;6154456;28;83693;-56
2024/03/22 10:03:40;;;;;;;6.18;3.33;;;24.10;44.60;;;;;;6154271;28;80941;-56
2024/03/22 10:06:41;;;;;;;5.15;3.80;;;24.10;44.60;;;;;;6167680;28;80464;-56
2024/03/22 10:09:43;;;;;;;4.75;3.13;;;24.20;44.70;;;;;;6142254;28;80433;-56
2024/03/22 10:12:43;;;;;;;4.25;3.38;;;24.10;44.60;;;;;;6154316;28;80415;-57
2024/03/22 10:15:44;;;;;;;5.15;3.42;;;24.10;44.50;;;;;;6166294;28;81511;-56
2024/03/22 10:18:44;;;;;;;4.95;3.20;;;24.10;44.50;;;;;;6154305;28;80489;-58
2024/03/22 10:21:45;;;;;;;4.75;3.08;;;24.10;44.50;;;;;;6155024;28;80534;-58
2024/03/22 10:24:45;;;;;;;4.97;3.38;;;24.10;44.50;;;;;;6154910;28;80560;-58
2024/03/22 10:27:46;;;;;;;5.95;3.67;;;24.10;44.40;;;;;;6153688;28;80234;-58
2024/03/22 10:30:46;;;;;;;6.05;3.50;;;24.10;44.40;;;;;;6158614;28;80838;-58
2024/03/22 10:33:48;;;;;;;5.07;3.03;;;24.10;44.40;;;;;;6159880;28;81303;-58
2024/03/22 10:36:49;;;;;;;4.18;3.05;;;24.10;44.40;;;;;;6153839;28;80612;-57
2024/03/22 10:39:49;;;;;;;4.82;3.38;;;24.10;44.40;;;;;;6154542;28;81447;-56
2024/03/22 10:42:50;;;;;;;4.18;3.05;;;24.10;44.30;;;;;;6166642;28;81332;-58
2024/03/22 10:45:50;;;;;;;4.25;2.80;;;24.10;44.30;;;;;;6167191;28;81009;-55
2024/03/22 10:48:51;;;;;;;4.22;3.28;;;24.10;44.20;;;;;;6153507;28;80872;-57
2024/03/22 10:51:51;;;;;;;4.90;3.10;;;24.10;44.20;;;;;;6154062;28;80427;-55
2024/03/22 10:54:52;;;;;;;4.43;2.50;;;24.10;44.20;;;;;;6154382;28;80800;-57
2024/03/22 10:57:53;;;;;;;5.38;3.45;;;24.20;44.10;;;;;;6154587;28;80278;-57
2024/03/22 11:00:54;;;;;;;4.78;2.95;;;24.10;44.10;;;;;;6154077;28;80911;-57
2024/03/22 11:03:55;;;;;;;4.95;2.85;;;24.20;44.10;;;;;;6153597;28;80597;-57
2024/03/22 11:06:56;;;;;;;5.78;3.78;;;24.20;44.10;;;;;;6167929;28;81849;-56
2024/03/22 11:09:57;;;;;;;7.30;3.00;;;24.10;44.00;;;;;;6162486;28;81227;-56
2024/03/22 11:12:57;;;;;;;6.60;3.15;;;24.20;44.00;;;;;;6157569;28;81205;-64
2024/03/22 11:15:58;;;;;;;6.50;3.22;;;24.20;44.00;;;;;;6154395;28;80353;-64
2024/03/22 11:18:58;;;;;;;12.45;3.78;;;24.20;44.00;;;;;;6152784;28;81034;-64
2024/03/22 11:21:59;;;;;;;6.88;3.35;;;24.20;44.00;;;;;;6154041;28;81279;-64
2024/03/22 11:24:59;;;;;;;7.95;3.63;;;24.20;43.90;;;;;;6152786;28;80666;-65
2024/03/22 11:28:03;;;;;;;6.07;3.17;;;24.30;44.00;;;;;;6154149;28;82747;-64
2024/03/22 11:31:03;;;;;;;6.88;2.88;;;24.30;43.90;;;;;;6160592;28;81196;-63
2024/03/22 11:34:04;;;;;;;8.20;3.45;;;24.30;43.90;;;;;;6158396;28;82641;-65
2024/03/22 11:37:05;;;;;;;5.10;3.05;;;24.20;43.90;;;;;;6164024;28;83688;-63
2024/03/22 11:40:06;;;;;;;10.27;3.75;;;24.30;44.00;;;;;;6171346;28;80287;-63
2024/03/22 11:43:06;;;;;;;5.20;2.97;;;24.30;44.00;;;;;;6163658;28;81100;-64
2024/03/22 11:46:07;;;;;;;5.45;2.70;;;24.20;44.00;;;;;;6155158;28;83764;-65
2024/03/22 11:49:07;;;;;;;3.67;2.80;;;24.30;43.90;;;;;;6155767;28;82513;-58
2024/03/22 11:52:08;;;;;;;4.75;3.33;;;24.30;44.00;;;;;;6172234;28;80646;-51
2024/03/22 11:55:08;;;;;;;7.38;2.85;;;24.30;44.20;;;;;;6157677;28;80692;-53
2024/03/22 11:58:09;;;;;;;4.53;2.80;;;24.30;44.40;;;;;;6167763;28;81056;-48
2024/03/22 12:01:09;;;;;;;7.30;3.33;;;24.30;44.90;;;;;;6169141;28;83663;-52
2024/03/22 12:04:14;;;;;;;8.77;2.72;;;24.30;44.70;;;;;;6159775;28;80825;-49
2024/03/22 12:07:15;;;;;;;7.17;2.73;;;24.30;45.10;;;;;;6162152;28;80439;-48
2024/03/22 12:10:15;;;;;;;4.05;2.50;;;24.40;45.10;;;;;;6152048;28;80654;-53
2024/03/22 12:13:16;;;;;;;3.30;2.35;;;24.40;45.20;;;;;;6163583;28;80298;-54
2024/03/22 12:16:16;;;;;;;3.88;2.55;;;24.40;45.30;;;;;;6157490;28;80529;-56
2024/03/22 12:19:17;;;;;;;6.18;2.67;;;24.50;45.30;;;;;;6152901;28;82854;-57
2024/03/22 12:22:17;;;;;;;3.67;2.70;;;24.50;45.20;;;;;;6155385;28;82020;-54
2024/03/22 12:25:18;;;;;;;3.17;2.45;;;24.50;45.30;;;;;;6153331;28;81253;-55
2024/03/22 12:28:18;;;;;;;3.38;2.58;;;24.60;45.30;;;;;;6163145;28;80653;-57
2024/03/22 12:31:19;;;;;;;6.60;2.67;;;24.60;45.20;;;;;;6168701;28;80461;-56
2024/03/22 12:34:20;;;;;;;4.18;2.45;;;24.60;45.00;;;;;;6166767;28;80469;-53
2024/03/22 12:37:20;;;;;;;3.28;2.50;;;24.60;45.00;;;;;;6158520;28;81295;-56
2024/03/22 12:40:21;;;;;;;3.97;2.53;;;24.60;45.20;;;;;;6168981;28;80596;-55
2024/03/22 12:43:21;;;;;;;4.93;2.60;;;24.60;45.10;;;;;;6148750;28;80474;-56
2024/03/22 12:46:22;;;;;;;4.47;2.80;;;24.60;45.10;;;;;;6165270;28;80543;-59
2024/03/22 12:49:22;;;;;;;5.25;3.22;;;24.60;44.80;;;;;;6150630;28;80178;-59
2024/03/22 12:52:23;;;;;;;3.85;2.60;;;24.60;44.80;;;;;;6151836;28;80396;-57
2024/03/22 12:55:23;;;;;;;7.85;2.60;;;24.60;44.90;;;;;;6155145;28;81497;-59
2024/03/22 12:58:24;;;;;;;3.40;2.35;;;24.60;45.00;;;;;;6148084;28;80877;-59
2024/03/22 13:01:25;;;;;;;7.05;2.60;;;24.60;45.00;;;;;;6153000;28;80425;-58
2024/03/22 13:04:25;;;;;;;4.43;2.70;;;24.60;45.10;;;;;;6153581;28;80378;-63
2024/03/22 13:07:27;;;;;;;2.67;2.00;;;24.60;45.10;;;;;;6154592;28;80506;-64
2024/03/22 13:10:27;;;;;;;2.85;2.38;;;24.60;45.20;;;;;;6165989;28;80307;-65
2024/03/22 13:13:28;;;;;;;4.88;2.63;;;24.60;45.20;;;;;;6161874;28;80396;-65
2024/03/22 13:16:28;;;;;;;3.70;2.58;;;24.60;45.20;;;;;;6155732;28;80882;-64
2024/03/22 13:19:29;;;;;;;4.38;2.28;;;24.60;45.30;;;;;;6158750;28;80422;-64
2024/03/22 13:22:30;;;;;;;3.55;2.70;;;24.60;45.20;;;;;;6159229;28;81088;-59
2024/03/22 13:25:30;;;;;;;6.40;2.78;;;24.60;45.20;;;;;;6150328;28;81852;-60
2024/03/22 13:28:31;;;;;;;3.40;2.38;;;24.60;45.10;;;;;;6162635;28;80522;-58
2024/03/22 13:31:31;;;;;;;8.30;3.08;;;24.50;45.20;;;;;;6163245;28;80400;-57
2024/03/22 13:34:33;;;;;;;10.23;2.65;;;24.50;45.30;;;;;;6152955;28;80481;-59
2024/03/22 13:37:33;;;;;;;5.43;3.20;;;24.50;45.20;;;;;;6157652;28;80557;-59
2024/03/22 13:40:34;;;;;;;3.67;2.80;;;24.50;45.00;;;;;;6161520;28;80525;-54
2024/03/22 13:43:37;;;;;;;6.60;3.10;;;24.50;45.00;;;;;;6164472;28;82586;-54
2024/03/22 13:46:41;;;;;;;3.20;2.88;;;24.50;45.00;;;;;;6150986;28;80585;-52
2024/03/22 13:49:42;;;;;;;3.95;2.85;;;24.50;45.00;;;;;;6160718;28;80440;-51
2024/03/22 13:52:43;;;;;;;5.90;3.15;;;24.50;45.60;;;;;;6150987;28;80263;-52
2024/03/22 13:55:43;;;;;;;6.50;3.63;;;24.50;44.90;;;;;;6150836;28;81548;-54
2024/03/22 13:58:44;;;;;;;3.45;2.40;;;24.40;44.90;;;;;;6151387;28;80484;-52
2024/03/22 14:01:47;;;;;;;3.75;2.45;;;24.40;44.90;;;;;;6150932;28;81027;-54
2024/03/22 14:04:47;;;;;;;4.07;2.65;;;24.40;44.90;;;;;;6157471;28;80100;-55
2024/03/22 14:07:48;;;;;;;2.90;2.60;;;24.40;44.90;;;;;;6156727;28;80709;-55
2024/03/22 14:10:48;;;;;;;3.70;2.33;;;24.40;44.80;;;;;;6153958;28;80276;-54
2024/03/22 14:13:49;;;;;;;5.00;2.65;;;24.40;44.90;;;;;;6154520;28;80916;-55
2024/03/22 14:16:49;;;;;;;4.70;2.78;;;24.40;45.00;;;;;;6155875;28;81672;-53
2024/03/22 14:19:51;;;;;;;4.03;2.80;;;24.40;45.00;;;;;;6153796;28;80924;-54
2024/03/22 14:22:52;;;;;;;5.93;2.60;;;24.40;44.90;;;;;;6155377;28;81081;-55
2024/03/22 14:25:52;;;;;;;9.75;2.88;;;24.40;45.60;;;;;;6154943;28;80362;-51
2024/03/22 14:28:53;;;;;;;4.07;2.83;;;24.40;45.00;;;;;;6154730;28;81776;-55
2024/03/22 14:31:55;;;;;;;4.97;2.85;;;24.40;45.00;;;;;;6164029;28;83078;-55
2024/03/22 14:34:55;;;;;;;4.32;2.65;;;24.40;45.10;;;;;;6157440;28;81048;-55
2024/03/22 14:37:56;;;;;;;19.27;3.20;;;24.40;45.00;;;;;;6176953;28;81420;-56
2024/03/22 14:40:57;;;;;;;6.57;3.00;;;24.40;45.20;;;;;;6154629;28;87672;-51
2024/03/22 14:43:57;;;;;;;10.30;3.47;;;24.40;45.30;;;;;;6155047;28;80340;-54
2024/03/22 14:46:58;;;;;;;5.47;3.15;;;24.30;45.30;;;;;;6177588;28;81218;-52
2024/03/22 14:49:59;;;;;;;6.53;3.50;;;24.40;45.40;;;;;;6154733;28;80711;-53
2024/03/22 14:52:59;;;;;;;12.30;3.60;;;24.40;45.50;;;;;;6151126;28;80771;-51
2024/03/22 14:56:03;;;;;;;6.80;3.42;;;24.30;45.90;;;;;;6169117;28;81358;-55
2024/03/22 14:59:03;;;;;;;9.52;3.63;;;24.40;47.10;;;;;;6165875;28;80523;-57
2024/03/22 15:02:04;;;;;;;9.95;3.30;;;24.40;46.60;;;;;;6164041;28;80361;-59
2024/03/22 15:05:04;;;;;;;7.03;3.13;;;24.40;46.70;;;;;;6165081;28;80392;-60
2024/03/22 15:08:05;;;;;;;11.40;3.95;;;24.40;46.60;;;;;;6152224;28;81253;-57
2024/03/22 15:11:05;;;;;;;8.55;3.67;;;24.40;46.70;;;;;;6165286;28;80475;-55
2024/03/22 15:14:06;;;;;;;10.43;3.30;;;24.40;46.90;;;;;;6156587;28;80856;-52
2024/03/22 15:17:08;;;;;;;6.85;4.07;;;24.40;47.10;;;;;;6162492;28;80669;-52
2024/03/22 15:20:08;;;;;;;7.53;3.88;;;24.40;47.30;;;;;;6154905;28;80644;-49
2024/03/22 15:23:09;;;;;;;11.07;3.53;;;24.50;47.10;;;;;;6153803;28;80412;-52
2024/03/22 15:26:09;;;;;;;7.28;3.45;;;24.50;47.10;;;;;;6153633;28;80260;-55
2024/03/22 15:29:10;;;;;;;5.63;3.45;;;24.50;47.30;;;;;;6153626;28;81389;-49